Terminal Aerodrome Forecast
Issued by NWS Mt. Holly, NJ

Home | Current Version | Previous Version | Text Only | Print | Product List | Glossary On
Versions: 1 2 3 4 5 6 7 8 9 10 11 12 13 14 15 16 17 18 19
475
FTUS41 KPHI 300925 AAA
TAFABE
TAF AMD
KABE 300925Z 3009/3106 VRB03KT P6SM VCSH SCT008 OVC025
      TEMPO 3009/3013 4SM -SHRA BR OVC008
     FM301300 25005KT 4SM -SHRA BR OVC015
     FM301600 22005KT P6SM VCSH OVC030
     FM301900 20006KT P6SM BKN250
     FM310200 VRB03KT 6SM BR SCT015 BKN250=

USA.gov is the U.S. government's official web portal to all federal, state and local government web resources and services.